Mc Entire JNGB Airport
KMMT : now visible

Airfield :











YOU CAN JOIN US ON...

 
LOGIN :

Register | Disclaimer

   EN    FR    IT 

 









Legend :    VFR   Marginal VFR   IFR   Intensive IFR   Very Intensive IFR
Visi :
Ceiling :
>= 8 km
>= 3000ft
5 to 8 km
1000 to 3000 ft
1500m to 5 km
500 to 1000 ft
800 to 1500m
200 to 500 ft
< 800m
< 200 ft
Symbols :   Thunderstorms  Fog  Heavy snow  Heavy precipitations  Wind > 20 kt






- Airport Elevation : 254 ft


KMMT - Mc Entire JNGB

CURRENT METAR :
  • 291256Z 05004KT 10SM FEW100 FEW200 02/02 A3008 RMK AO2A SLP191 T00230023 $

EXPIRED METARs :
  • 291156Z 07003KT 10SM FEW100 01/01 A3005 RMK AO2A SLP180 T00060005 10016 21008 52010 $
  • 291056Z 00000KT 10SM SCT130 01/01 A3004 RMK AO2A SLP177 T00110010 $

TAF TAF KMMT
Valid from the 29 at 08:00 until the 30 at 14:00 UTC


290800Z 2908/3014 19006KT 9999 FEW250 QNH2996INS
BECMG 2911/2912 06004KT 9999 SCT040 SCT250 QNH3006INS
BECMG 2919/2920 06006KT 9999 BKN025 OVC090 620904 QNH3008INS
BECMG 3003/3004 04004KT 8000 -SHRA OVC015 620707 QNH3008INS
BECMG 3007/3008 06004KT 9999 NSW SCT020 OVC040 620707 QNH3010INS TX11/2921Z TNM02/2912Z



MET'MAP, your aeronautical weather chart ! - Copyright ORBIFLY December 2007 - Disclaimer

ORBIFLY MET'MAP TEAM :

Programming & Development : Alexandra Zaïnal
Concept & original design : Baudouin d'Aumeries
Assistance for programming : Marc-Olivier Méhu
Technical & hardware support : Manuel Goepfert

Contact : metmap@orbifly.com




SOURCES & CREDITS :

   NOAA       Earth
Advisory